sensor_id;sensor_type;location;lat;lon;timestamp;noise_LAeq;noise_LA_min;noise_LA_max;noise_LA01;noise_LA95
45651;Laerm;31365;48.858;8.530;2023-02-13T00:01:29;41.71;39.92;43.77;;
45651;Laerm;31365;48.858;8.530;2023-02-13T00:03:59;41.64;40.23;43.04;;
45651;Laerm;31365;48.858;8.530;2023-02-13T00:06:27;41.62;40.23;43.24;;
45651;Laerm;31365;48.858;8.530;2023-02-13T00:08:56;53.58;40.03;73.85;;
45651;Laerm;31365;48.858;8.530;2023-02-13T00:11:24;56.69;40.23;77.99;;
45651;Laerm;31365;48.858;8.530;2023-02-13T00:13:53;42.60;40.23;52.63;;
45651;Laerm;31365;48.858;8.530;2023-02-13T00:16:21;42.35;40.23;51.55;;
45651;Laerm;31365;48.858;8.530;2023-02-13T00:18:51;41.60;40.03;42.88;;
45651;Laerm;31365;48.858;8.530;2023-02-13T00:21:19;41.59;40.03;49.96;;
45651;Laerm;31365;48.858;8.530;2023-02-13T00:23:47;41.62;40.23;42.93;;
45651;Laerm;31365;48.858;8.530;2023-02-13T00:26:17;54.26;40.23;74.50;;
45651;Laerm;31365;48.858;8.530;2023-02-13T00:28:46;41.55;40.13;45.59;;
45651;Laerm;31365;48.858;8.530;2023-02-13T00:31:17;41.58;40.13;43.44;;
45651;Laerm;31365;48.858;8.530;2023-02-13T00:33:48;41.56;40.03;43.49;;
45651;Laerm;31365;48.858;8.530;2023-02-13T00:36:20;41.53;40.13;43.72;;
45651;Laerm;31365;48.858;8.530;2023-02-13T00:38:53;58.85;40.23;77.86;;
45651;Laerm;31365;48.858;8.530;2023-02-13T00:41:22;41.54;40.13;43.04;;
45651;Laerm;31365;48.858;8.530;2023-02-13T00:43:51;41.56;40.13;43.04;;
45651;Laerm;31365;48.858;8.530;2023-02-13T00:46:20;41.61;40.13;45.04;;
45651;Laerm;31365;48.858;8.530;2023-02-13T00:51:19;55.14;40.23;75.31;;
45651;Laerm;31365;48.858;8.530;2023-02-13T00:53:47;41.48;40.03;44.54;;
45651;Laerm;31365;48.858;8.530;2023-02-13T00:56:15;41.48;40.03;44.54;;
45651;Laerm;31365;48.858;8.530;2023-02-13T00:58:44;55.34;40.13;76.03;;
45651;Laerm;31365;48.858;8.530;2023-02-13T01:01:12;41.65;40.03;44.15;;
45651;Laerm;31365;48.858;8.530;2023-02-13T01:03:41;41.56;40.13;42.88;;
45651;Laerm;31365;48.858;8.530;2023-02-13T01:06:12;41.61;40.13;43.24;;
45651;Laerm;31365;48.858;8.530;2023-02-13T01:08:42;41.69;40.13;48.61;;
45651;Laerm;31365;48.858;8.530;2023-02-13T01:11:11;42.66;40.08;66.35;;
45651;Laerm;31365;48.858;8.530;2023-02-13T01:13:40;41.59;40.13;43.09;;
45651;Laerm;31365;48.858;8.530;2023-02-13T01:16:08;53.96;40.43;73.20;;
45651;Laerm;31365;48.858;8.530;2023-02-13T01:18:39;41.59;39.99;44.94;;
45651;Laerm;31365;48.858;8.530;2023-02-13T01:21:16;41.67;40.23;43.44;;
45651;Laerm;31365;48.858;8.530;2023-02-13T01:23:46;41.54;40.13;43.99;;
45651;Laerm;31365;48.858;8.530;2023-02-13T01:26:22;41.53;40.03;47.14;;
45651;Laerm;31365;48.858;8.530;2023-02-13T01:28:53;41.66;40.23;43.09;;
45651;Laerm;31365;48.858;8.530;2023-02-13T01:31:21;41.75;40.43;44.65;;
45651;Laerm;31365;48.858;8.530;2023-02-13T01:33:55;55.31;39.92;75.73;;
45651;Laerm;31365;48.858;8.530;2023-02-13T01:36:26;41.70;40.03;42.93;;
45651;Laerm;31365;48.858;8.530;2023-02-13T01:38:57;41.66;40.03;43.09;;
45651;Laerm;31365;48.858;8.530;2023-02-13T01:41:27;41.54;39.92;45.01;;
45651;Laerm;31365;48.858;8.530;2023-02-13T01:43:58;41.48;40.03;42.98;;
45651;Laerm;31365;48.858;8.530;2023-02-13T01:46:32;59.44;40.13;78.92;;
45651;Laerm;31365;48.858;8.530;2023-02-13T01:49:10;41.49;40.03;44.11;;
45651;Laerm;31365;48.858;8.530;2023-02-13T01:51:42;52.95;39.92;72.18;;
45651;Laerm;31365;48.858;8.530;2023-02-13T01:56:51;41.52;40.03;42.76;;
45651;Laerm;31365;48.858;8.530;2023-02-13T01:59:26;41.49;39.92;43.29;;
45651;Laerm;31365;48.858;8.530;2023-02-13T02:01:57;50.27;40.13;68.25;;
45651;Laerm;31365;48.858;8.530;2023-02-13T02:04:31;41.65;39.81;44.87;;
45651;Laerm;31365;48.858;8.530;2023-02-13T02:07:09;41.45;39.92;42.82;;
45651;Laerm;31365;48.858;8.530;2023-02-13T02:09:43;41.48;40.03;43.04;;
45651;Laerm;31365;48.858;8.530;2023-02-13T02:12:21;41.42;39.70;42.71;;
45651;Laerm;31365;48.858;8.530;2023-02-13T02:14:54;52.45;39.58;72.38;;
45651;Laerm;31365;48.858;8.530;2023-02-13T02:17:25;42.11;40.08;50.53;;
45651;Laerm;31365;48.858;8.530;2023-02-13T02:20:13;41.45;39.81;49.02;;
45651;Laerm;31365;48.858;8.530;2023-02-13T02:26:37;41.45;40.03;43.29;;
45651;Laerm;31365;48.858;8.530;2023-02-13T02:29:48;41.54;40.03;45.48;;
45651;Laerm;31365;48.858;8.530;2023-02-13T02:32:45;41.53;40.03;43.24;;
45651;Laerm;31365;48.858;8.530;2023-02-13T02:35:28;41.42;39.81;43.09;;
45651;Laerm;31365;48.858;8.530;2023-02-13T02:38:20;54.67;39.70;77.91;;
45651;Laerm;31365;48.858;8.530;2023-02-13T02:41:06;41.44;39.81;44.47;;
45651;Laerm;31365;48.858;8.530;2023-02-13T02:43:50;52.34;39.81;74.53;;
45651;Laerm;31365;48.858;8.530;2023-02-13T02:46:30;41.67;39.81;48.49;;
45651;Laerm;31365;48.858;8.530;2023-02-13T02:49:05;41.39;39.81;43.72;;
45651;Laerm;31365;48.858;8.530;2023-02-13T02:52:01;41.38;40.03;42.88;;
45651;Laerm;31365;48.858;8.530;2023-02-13T02:54:38;41.32;39.58;52.09;;
45651;Laerm;31365;48.858;8.530;2023-02-13T02:57:31;55.27;39.58;78.65;;
45651;Laerm;31365;48.858;8.530;2023-02-13T03:00:16;41.44;39.92;44.15;;
45651;Laerm;31365;48.858;8.530;2023-02-13T03:03:17;51.20;39.81;69.78;;
45651;Laerm;31365;48.858;8.530;2023-02-13T03:06:14;53.09;39.92;74.62;;
45651;Laerm;31365;48.858;8.530;2023-02-13T03:08:51;52.52;40.03;71.52;;
45651;Laerm;31365;48.858;8.530;2023-02-13T03:11:52;53.93;39.46;76.53;;
45651;Laerm;31365;48.858;8.530;2023-02-13T03:14:43;41.98;39.99;49.91;;
45651;Laerm;31365;48.858;8.530;2023-02-13T03:17:16;55.06;39.81;73.97;;
45651;Laerm;31365;48.858;8.530;2023-02-13T03:20:17;50.67;39.81;73.18;;
45651;Laerm;31365;48.858;8.530;2023-02-13T03:23:14;58.53;40.33;79.49;;
45651;Laerm;31365;48.858;8.530;2023-02-13T03:28:54;45.03;39.81;63.98;;
45651;Laerm;31365;48.858;8.530;2023-02-13T03:31:50;56.48;39.92;77.00;;
45651;Laerm;31365;48.858;8.530;2023-02-13T03:34:32;56.79;40.13;74.94;;
45651;Laerm;31365;48.858;8.530;2023-02-13T03:37:30;56.69;39.81;80.30;;
45651;Laerm;31365;48.858;8.530;2023-02-13T03:40:27;54.44;40.13;77.49;;
45651;Laerm;31365;48.858;8.530;2023-02-13T03:43:09;54.26;40.53;70.50;;
45651;Laerm;31365;48.858;8.530;2023-02-13T03:45:44;61.91;40.89;80.04;;
45651;Laerm;31365;48.858;8.530;2023-02-13T03:48:29;55.13;40.23;73.72;;
45651;Laerm;31365;48.858;8.530;2023-02-13T03:51:22;57.14;40.43;75.23;;
45651;Laerm;31365;48.858;8.530;2023-02-13T03:53:58;41.57;40.13;42.88;;
45651;Laerm;31365;48.858;8.530;2023-02-13T03:56:32;53.97;40.13;73.34;;
45651;Laerm;31365;48.858;8.530;2023-02-13T03:59:24;41.95;39.92;50.82;;
45651;Laerm;31365;48.858;8.530;2023-02-13T04:02:03;53.88;40.13;72.22;;
45651;Laerm;31365;48.858;8.530;2023-02-13T04:04:44;58.53;40.43;76.70;;
45651;Laerm;31365;48.858;8.530;2023-02-13T04:07:16;56.16;40.98;73.69;;
45651;Laerm;31365;48.858;8.530;2023-02-13T04:09:59;59.71;40.33;77.53;;
45651;Laerm;31365;48.858;8.530;2023-02-13T04:12:38;59.32;40.23;74.66;;
45651;Laerm;31365;48.858;8.530;2023-02-13T04:15:15;41.86;40.03;45.04;;
45651;Laerm;31365;48.858;8.530;2023-02-13T04:17:51;55.10;39.92;72.57;;
45651;Laerm;31365;48.858;8.530;2023-02-13T04:20:21;60.69;40.53;78.70;;
45651;Laerm;31365;48.858;8.530;2023-02-13T04:22:49;59.17;40.23;80.08;;
45651;Laerm;31365;48.858;8.530;2023-02-13T04:25:18;58.85;40.80;75.57;;
45651;Laerm;31365;48.858;8.530;2023-02-13T04:27:49;55.99;39.92;75.99;;
45651;Laerm;31365;48.858;8.530;2023-02-13T04:30:18;52.95;39.70;70.51;;
45651;Laerm;31365;48.858;8.530;2023-02-13T04:32:50;61.57;40.43;79.30;;
45651;Laerm;31365;48.858;8.530;2023-02-13T04:35:19;57.33;40.71;72.79;;
45651;Laerm;31365;48.858;8.530;2023-02-13T04:37:47;63.13;41.96;80.57;;
45651;Laerm;31365;48.858;8.530;2023-02-13T04:40:16;59.91;40.53;78.21;;
45651;Laerm;31365;48.858;8.530;2023-02-13T04:42:47;63.14;42.09;77.60;;
45651;Laerm;31365;48.858;8.530;2023-02-13T04:45:16;60.12;41.53;75.14;;
45651;Laerm;31365;48.858;8.530;2023-02-13T04:47:50;61.48;40.89;77.07;;
45651;Laerm;31365;48.858;8.530;2023-02-13T04:50:20;60.54;40.53;76.18;;
45651;Laerm;31365;48.858;8.530;2023-02-13T04:52:52;62.82;41.82;81.30;;
45651;Laerm;31365;48.858;8.530;2023-02-13T04:55:21;61.28;40.89;76.75;;
45651;Laerm;31365;48.858;8.530;2023-02-13T04:57:51;62.07;40.89;77.22;;
45651;Laerm;31365;48.858;8.530;2023-02-13T05:00:24;63.30;40.23;81.07;;
45651;Laerm;31365;48.858;8.530;2023-02-13T05:02:59;62.60;41.82;79.75;;
45651;Laerm;31365;48.858;8.530;2023-02-13T05:05:31;63.58;42.59;81.44;;
45651;Laerm;31365;48.858;8.530;2023-02-13T05:07:59;60.83;40.80;74.94;;
45651;Laerm;31365;48.858;8.530;2023-02-13T05:10:28;59.44;41.75;76.10;;
45651;Laerm;31365;48.858;8.530;2023-02-13T05:12:57;65.18;42.93;82.48;;
45651;Laerm;31365;48.858;8.530;2023-02-13T05:15:27;60.48;42.03;77.51;;
45651;Laerm;31365;48.858;8.530;2023-02-13T05:17:56;63.51;42.59;79.32;;
45651;Laerm;31365;48.858;8.530;2023-02-13T05:20:26;63.56;41.14;78.69;;
45651;Laerm;31365;48.858;8.530;2023-02-13T05:22:55;63.53;41.53;81.31;;
45651;Laerm;31365;48.858;8.530;2023-02-13T05:25:41;63.76;40.89;79.60;;
45651;Laerm;31365;48.858;8.530;2023-02-13T05:28:09;64.16;42.09;79.32;;
45651;Laerm;31365;48.858;8.530;2023-02-13T05:30:53;63.45;40.80;78.68;;
45651;Laerm;31365;48.858;8.530;2023-02-13T05:33:24;64.59;42.76;81.74;;
45651;Laerm;31365;48.858;8.530;2023-02-13T05:35:53;63.77;41.61;77.41;;
45651;Laerm;31365;48.858;8.530;2023-02-13T05:38:21;65.24;44.42;78.95;;
45651;Laerm;31365;48.858;8.530;2023-02-13T05:40:50;68.60;43.72;89.96;;
45651;Laerm;31365;48.858;8.530;2023-02-13T05:43:18;65.65;43.72;76.87;;
45651;Laerm;31365;48.858;8.530;2023-02-13T05:45:47;64.68;44.23;81.19;;
45651;Laerm;31365;48.858;8.530;2023-02-13T05:48:16;65.05;44.19;77.81;;
45651;Laerm;31365;48.858;8.530;2023-02-13T05:50:45;61.40;41.89;75.77;;
45651;Laerm;31365;48.858;8.530;2023-02-13T05:53:14;64.44;44.19;77.12;;
45651;Laerm;31365;48.858;8.530;2023-02-13T05:55:43;66.36;44.07;78.90;;
45651;Laerm;31365;48.858;8.530;2023-02-13T05:58:11;65.81;44.47;78.33;;
45651;Laerm;31365;48.858;8.530;2023-02-13T06:00:40;64.50;43.72;77.37;;
45651;Laerm;31365;48.858;8.530;2023-02-13T06:03:08;64.68;44.58;79.38;;
45651;Laerm;31365;48.858;8.530;2023-02-13T06:05:38;63.95;43.94;77.90;;
45651;Laerm;31365;48.858;8.530;2023-02-13T06:08:06;65.85;42.65;77.87;;
45651;Laerm;31365;48.858;8.530;2023-02-13T06:10:34;66.08;43.90;78.71;;
45651;Laerm;31365;48.858;8.530;2023-02-13T06:13:03;65.78;44.90;78.55;;
45651;Laerm;31365;48.858;8.530;2023-02-13T06:15:32;65.20;45.89;78.89;;
45651;Laerm;31365;48.858;8.530;2023-02-13T06:18:00;67.22;45.60;81.91;;
45651;Laerm;31365;48.858;8.530;2023-02-13T06:20:29;64.57;43.28;77.30;;
45651;Laerm;31365;48.858;8.530;2023-02-13T06:23:00;65.96;47.04;79.90;;
45651;Laerm;31365;48.858;8.530;2023-02-13T06:30:26;67.02;46.15;79.06;;
45651;Laerm;31365;48.858;8.530;2023-02-13T06:32:54;63.21;42.88;76.50;;
45651;Laerm;31365;48.858;8.530;2023-02-13T06:35:24;67.77;46.73;85.66;;
45651;Laerm;31365;48.858;8.530;2023-02-13T06:37:54;66.29;44.35;77.49;;
45651;Laerm;31365;48.858;8.530;2023-02-13T06:40:23;65.32;45.30;76.83;;
45651;Laerm;31365;48.858;8.530;2023-02-13T06:42:54;64.74;43.04;80.23;;
45651;Laerm;31365;48.858;8.530;2023-02-13T06:45:23;66.67;44.97;82.86;;
45651;Laerm;31365;48.858;8.530;2023-02-13T06:47:54;63.91;42.65;77.00;;
45651;Laerm;31365;48.858;8.530;2023-02-13T06:50:22;63.95;43.34;78.33;;
45651;Laerm;31365;48.858;8.530;2023-02-13T06:52:51;62.82;43.09;76.42;;
45651;Laerm;31365;48.858;8.530;2023-02-13T06:55:22;66.32;45.36;78.13;;
45651;Laerm;31365;48.858;8.530;2023-02-13T06:58:09;63.31;45.83;75.15;;
45651;Laerm;31365;48.858;8.530;2023-02-13T07:00:39;65.54;43.44;78.04;;
45651;Laerm;31365;48.858;8.530;2023-02-13T07:03:08;67.10;42.93;86.36;;
45651;Laerm;31365;48.858;8.530;2023-02-13T07:05:39;65.60;42.98;80.13;;
45651;Laerm;31365;48.858;8.530;2023-02-13T07:08:12;63.53;43.19;78.71;;
45651;Laerm;31365;48.858;8.530;2023-02-13T07:10:41;65.11;47.43;79.13;;
45651;Laerm;31365;48.858;8.530;2023-02-13T07:13:10;63.88;43.81;79.77;;
45651;Laerm;31365;48.858;8.530;2023-02-13T07:16:00;66.05;44.69;85.78;;
45651;Laerm;31365;48.858;8.530;2023-02-13T07:18:28;66.72;42.22;87.28;;
45651;Laerm;31365;48.858;8.530;2023-02-13T07:20:57;64.66;42.09;78.82;;
45651;Laerm;31365;48.858;8.530;2023-02-13T07:23:27;64.52;42.29;80.02;;
45651;Laerm;31365;48.858;8.530;2023-02-13T07:25:58;65.58;46.59;77.61;;
45651;Laerm;31365;48.858;8.530;2023-02-13T07:28:27;65.68;45.04;81.78;;
45651;Laerm;31365;48.858;8.530;2023-02-13T07:30:56;66.61;42.98;86.80;;
45651;Laerm;31365;48.858;8.530;2023-02-13T07:33:25;62.25;42.71;76.05;;
45651;Laerm;31365;48.858;8.530;2023-02-13T07:35:53;63.69;47.63;77.35;;
45651;Laerm;31365;48.858;8.530;2023-02-13T07:38:22;65.77;49.30;78.89;;
45651;Laerm;31365;48.858;8.530;2023-02-13T07:40:50;65.05;48.60;79.34;;
45651;Laerm;31365;48.858;8.530;2023-02-13T07:43:38;64.52;47.95;80.06;;
45651;Laerm;31365;48.858;8.530;2023-02-13T07:46:08;63.46;48.60;78.44;;
45651;Laerm;31365;48.858;8.530;2023-02-13T07:48:38;66.97;46.78;80.11;;
45651;Laerm;31365;48.858;8.530;2023-02-13T07:51:08;66.27;42.59;81.30;;
45651;Laerm;31365;48.858;8.530;2023-02-13T07:53:36;64.01;45.83;74.32;;
45651;Laerm;31365;48.858;8.530;2023-02-13T07:56:26;63.95;41.89;79.34;;
45651;Laerm;31365;48.858;8.530;2023-02-13T07:58:56;63.89;42.35;80.84;;
45651;Laerm;31365;48.858;8.530;2023-02-13T08:01:24;62.02;41.53;78.43;;
45651;Laerm;31365;48.858;8.530;2023-02-13T08:03:53;63.48;43.39;75.18;;
45651;Laerm;31365;48.858;8.530;2023-02-13T08:06:24;65.03;41.96;78.94;;
45651;Laerm;31365;48.858;8.530;2023-02-13T08:08:53;62.75;42.35;77.15;;
45651;Laerm;31365;48.858;8.530;2023-02-13T08:11:36;64.60;41.81;80.64;;
45651;Laerm;31365;48.858;8.530;2023-02-13T08:14:25;66.78;44.87;87.29;;
45651;Laerm;31365;48.858;8.530;2023-02-13T08:16:55;57.41;41.61;73.99;;
45651;Laerm;31365;48.858;8.530;2023-02-13T08:19:27;64.97;43.05;81.24;;
45651;Laerm;31365;48.858;8.530;2023-02-13T08:21:55;66.22;41.96;83.70;;
45651;Laerm;31365;48.858;8.530;2023-02-13T08:24:24;63.74;43.24;79.91;;
45651;Laerm;31365;48.858;8.530;2023-02-13T08:26:54;65.65;42.53;81.08;;
45651;Laerm;31365;48.858;8.530;2023-02-13T08:29:24;63.22;42.53;79.00;;
45651;Laerm;31365;48.858;8.530;2023-02-13T08:31:54;63.03;43.99;78.65;;
45651;Laerm;31365;48.858;8.530;2023-02-13T08:34:24;62.97;45.27;76.87;;
45651;Laerm;31365;48.858;8.530;2023-02-13T08:36:53;64.72;43.09;82.60;;
45651;Laerm;31365;48.858;8.530;2023-02-13T08:39:22;65.63;45.80;78.16;;
45651;Laerm;31365;48.858;8.530;2023-02-13T08:41:51;65.31;43.29;78.67;;
45651;Laerm;31365;48.858;8.530;2023-02-13T08:44:19;63.37;42.98;80.11;;
45651;Laerm;31365;48.858;8.530;2023-02-13T08:46:49;64.34;43.34;78.62;;
45651;Laerm;31365;48.858;8.530;2023-02-13T08:49:17;65.96;44.19;83.06;;
45651;Laerm;31365;48.858;8.530;2023-02-13T08:51:46;60.51;41.53;76.51;;
45651;Laerm;31365;48.858;8.530;2023-02-13T08:54:14;63.30;43.77;78.77;;
45651;Laerm;31365;48.858;8.530;2023-02-13T08:56:43;63.35;44.58;77.69;;
45651;Laerm;31365;48.858;8.530;2023-02-13T08:59:12;60.86;41.14;78.35;;
45651;Laerm;31365;48.858;8.530;2023-02-13T09:01:42;61.35;42.98;81.55;;
45651;Laerm;31365;48.858;8.530;2023-02-13T09:04:12;66.92;46.35;83.26;;
45651;Laerm;31365;48.858;8.530;2023-02-13T09:06:43;62.30;43.63;77.21;;
45651;Laerm;31365;48.858;8.530;2023-02-13T09:09:11;65.62;44.62;84.23;;
45651;Laerm;31365;48.858;8.530;2023-02-13T09:11:40;65.99;43.94;80.18;;
45651;Laerm;31365;48.858;8.530;2023-02-13T09:14:09;62.41;42.03;78.18;;
45651;Laerm;31365;48.858;8.530;2023-02-13T09:16:38;62.24;41.75;77.88;;
45651;Laerm;31365;48.858;8.530;2023-02-13T09:19:07;65.15;41.75;81.38;;
45651;Laerm;31365;48.858;8.530;2023-02-13T09:21:59;63.49;44.23;77.44;;
45651;Laerm;31365;48.858;8.530;2023-02-13T09:24:30;64.26;43.04;84.40;;
45651;Laerm;31365;48.858;8.530;2023-02-13T09:26:58;66.58;41.89;83.42;;
45651;Laerm;31365;48.858;8.530;2023-02-13T09:29:28;61.86;44.83;76.73;;
45651;Laerm;31365;48.858;8.530;2023-02-13T09:31:57;60.70;41.96;73.74;;
45651;Laerm;31365;48.858;8.530;2023-02-13T09:34:26;61.50;42.16;76.26;;
45651;Laerm;31365;48.858;8.530;2023-02-13T09:36:55;65.37;43.09;79.94;;
45651;Laerm;31365;48.858;8.530;2023-02-13T09:39:27;63.79;44.73;79.95;;
45651;Laerm;31365;48.858;8.530;2023-02-13T09:41:57;65.76;44.87;80.31;;
45651;Laerm;31365;48.858;8.530;2023-02-13T09:44:35;62.30;43.54;77.51;;
45651;Laerm;31365;48.858;8.530;2023-02-13T09:47:13;64.80;43.58;82.60;;
45651;Laerm;31365;48.858;8.530;2023-02-13T09:50:23;62.51;41.96;78.01;;
45651;Laerm;31365;48.858;8.530;2023-02-13T09:52:57;65.01;42.59;80.30;;
45651;Laerm;31365;48.858;8.530;2023-02-13T09:55:34;62.05;41.38;78.58;;
45651;Laerm;31365;48.858;8.530;2023-02-13T09:58:31;64.63;45.11;78.00;;
45651;Laerm;31365;48.858;8.530;2023-02-13T10:01:12;60.14;40.89;76.75;;
45651;Laerm;31365;48.858;8.530;2023-02-13T10:03:50;67.69;42.88;85.60;;
45651;Laerm;31365;48.858;8.530;2023-02-13T10:06:29;63.96;43.68;76.45;;
45651;Laerm;31365;48.858;8.530;2023-02-13T10:09:10;64.50;44.43;79.13;;
45651;Laerm;31365;48.858;8.530;2023-02-13T10:12:12;63.26;42.76;76.73;;
45651;Laerm;31365;48.858;8.530;2023-02-13T10:14:59;60.80;41.82;74.44;;
45651;Laerm;31365;48.858;8.530;2023-02-13T10:17:37;70.76;42.59;85.90;;
45651;Laerm;31365;48.858;8.530;2023-02-13T10:20:28;63.39;41.61;82.97;;
45651;Laerm;31365;48.858;8.530;2023-02-13T10:23:11;66.48;42.16;87.47;;
45651;Laerm;31365;48.858;8.530;2023-02-13T10:25:52;65.76;43.19;84.18;;
45651;Laerm;31365;48.858;8.530;2023-02-13T10:28:31;66.68;41.75;84.24;;
45651;Laerm;31365;48.858;8.530;2023-02-13T10:31:06;62.23;42.76;75.69;;
45651;Laerm;31365;48.858;8.530;2023-02-13T10:33:45;64.51;43.77;77.27;;
45651;Laerm;31365;48.858;8.530;2023-02-13T10:38:56;65.52;41.33;86.55;;
45651;Laerm;31365;48.858;8.530;2023-02-13T10:41:41;69.85;41.61;87.59;;
45651;Laerm;31365;48.858;8.530;2023-02-13T10:44:45;65.57;41.96;83.84;;
45651;Laerm;31365;48.858;8.530;2023-02-13T10:47:34;65.22;45.99;79.81;;
45651;Laerm;31365;48.858;8.530;2023-02-13T10:50:34;62.64;45.11;77.60;;
45651;Laerm;31365;48.858;8.530;2023-02-13T10:53:14;61.95;44.94;75.18;;
45651;Laerm;31365;48.858;8.530;2023-02-13T10:56:04;63.66;46.71;79.01;;
45651;Laerm;31365;48.858;8.530;2023-02-13T10:58:50;59.18;44.58;76.73;;
45651;Laerm;31365;48.858;8.530;2023-02-13T11:01:31;64.15;45.45;80.81;;
45651;Laerm;31365;48.858;8.530;2023-02-13T11:04:06;63.81;45.04;82.65;;
45651;Laerm;31365;48.858;8.530;2023-02-13T11:06:40;63.62;46.23;78.10;;
45651;Laerm;31365;48.858;8.530;2023-02-13T11:09:10;67.21;46.64;81.58;;
45651;Laerm;31365;48.858;8.530;2023-02-13T11:11:41;66.87;48.90;88.91;;
45651;Laerm;31365;48.858;8.530;2023-02-13T11:14:13;62.28;40.03;77.33;;
45651;Laerm;31365;48.858;8.530;2023-02-13T11:17:02;61.35;42.65;79.86;;
45651;Laerm;31365;48.858;8.530;2023-02-13T11:19:35;63.63;41.41;76.94;;
45651;Laerm;31365;48.858;8.530;2023-02-13T11:22:08;62.67;38.67;74.44;;
45651;Laerm;31365;48.858;8.530;2023-02-13T11:24:41;62.67;41.11;79.59;;
45651;Laerm;31365;48.858;8.530;2023-02-13T11:27:25;64.34;39.08;81.13;;
45651;Laerm;31365;48.858;8.530;2023-02-13T11:29:57;57.74;37.52;74.22;;
45651;Laerm;31365;48.858;8.530;2023-02-13T11:32:29;62.10;42.16;74.59;;
45651;Laerm;31365;48.858;8.530;2023-02-13T11:35:28;64.39;41.89;81.25;;
45651;Laerm;31365;48.858;8.530;2023-02-13T11:38:14;63.32;42.29;79.45;;
45651;Laerm;31365;48.858;8.530;2023-02-13T11:40:51;56.62;39.81;75.32;;
45651;Laerm;31365;48.858;8.530;2023-02-13T11:43:26;64.35;41.38;80.36;;
45651;Laerm;31365;48.858;8.530;2023-02-13T11:46:05;63.27;41.22;87.56;;
45651;Laerm;31365;48.858;8.530;2023-02-13T11:48:35;61.26;39.46;77.64;;
45651;Laerm;31365;48.858;8.530;2023-02-13T11:51:04;64.70;39.58;83.32;;
45651;Laerm;31365;48.858;8.530;2023-02-13T11:53:37;62.72;42.76;75.35;;
45651;Laerm;31365;48.858;8.530;2023-02-13T11:56:11;61.81;41.94;76.62;;
45651;Laerm;31365;48.858;8.530;2023-02-13T11:58:41;61.78;42.16;76.07;;
45651;Laerm;31365;48.858;8.530;2023-02-13T12:01:25;61.97;39.58;80.56;;
45651;Laerm;31365;48.858;8.530;2023-02-13T12:04:04;62.68;39.23;80.14;;
45651;Laerm;31365;48.858;8.530;2023-02-13T12:06:34;62.50;38.81;81.44;;
45651;Laerm;31365;48.858;8.530;2023-02-13T12:09:13;60.49;45.39;73.45;;
45651;Laerm;31365;48.858;8.530;2023-02-13T12:11:47;62.14;45.14;77.18;;
45651;Laerm;31365;48.858;8.530;2023-02-13T12:14:21;65.76;43.99;81.97;;
45651;Laerm;31365;48.858;8.530;2023-02-13T12:16:54;63.38;42.09;78.02;;
45651;Laerm;31365;48.858;8.530;2023-02-13T12:19:37;61.25;43.19;77.06;;
45651;Laerm;31365;48.858;8.530;2023-02-13T12:22:28;58.91;41.06;74.46;;
45651;Laerm;31365;48.858;8.530;2023-02-13T12:25:26;64.95;42.59;82.57;;
45651;Laerm;31365;48.858;8.530;2023-02-13T12:28:12;62.04;41.89;74.02;;
45651;Laerm;31365;48.858;8.530;2023-02-13T12:31:04;63.94;42.47;81.21;;
45651;Laerm;31365;48.858;8.530;2023-02-13T12:37:05;64.50;43.14;85.03;;
45651;Laerm;31365;48.858;8.530;2023-02-13T12:39:50;59.22;41.46;74.44;;
45651;Laerm;31365;48.858;8.530;2023-02-13T12:42:36;63.47;41.14;83.64;;
45651;Laerm;31365;48.858;8.530;2023-02-13T12:45:27;60.00;40.80;76.16;;
45651;Laerm;31365;48.858;8.530;2023-02-13T12:48:23;61.30;41.53;77.74;;
45651;Laerm;31365;48.858;8.530;2023-02-13T12:51:10;60.51;42.59;73.95;;
45651;Laerm;31365;48.858;8.530;2023-02-13T12:54:09;63.05;41.61;78.61;;
45651;Laerm;31365;48.858;8.530;2023-02-13T12:57:14;62.77;43.86;79.30;;
45651;Laerm;31365;48.858;8.530;2023-02-13T13:00:08;59.91;43.28;73.90;;
45651;Laerm;31365;48.858;8.530;2023-02-13T13:02:58;62.12;43.68;78.02;;
45651;Laerm;31365;48.858;8.530;2023-02-13T13:05:55;62.38;41.61;76.33;;
45651;Laerm;31365;48.858;8.530;2023-02-13T13:09:02;62.80;43.86;79.46;;
45651;Laerm;31365;48.858;8.530;2023-02-13T13:12:05;61.13;42.09;75.50;;
45651;Laerm;31365;48.858;8.530;2023-02-13T13:14:45;62.57;41.82;77.88;;
45651;Laerm;31365;48.858;8.530;2023-02-13T13:17:30;57.80;41.30;71.98;;
45651;Laerm;31365;48.858;8.530;2023-02-13T13:20:25;63.52;44.62;78.45;;
45651;Laerm;31365;48.858;8.530;2023-02-13T13:23:08;62.53;42.53;77.73;;
45651;Laerm;31365;48.858;8.530;2023-02-13T13:25:49;64.97;43.63;81.34;;
45651;Laerm;31365;48.858;8.530;2023-02-13T13:28:23;64.34;42.58;83.61;;
45651;Laerm;31365;48.858;8.530;2023-02-13T13:30:53;61.54;42.47;74.37;;
45651;Laerm;31365;48.858;8.530;2023-02-13T13:33:25;65.53;43.19;85.79;;
45651;Laerm;31365;48.858;8.530;2023-02-13T13:36:02;62.64;43.68;82.09;;
45651;Laerm;31365;48.858;8.530;2023-02-13T13:38:42;65.43;43.34;86.16;;
45651;Laerm;31365;48.858;8.530;2023-02-13T13:41:30;62.16;42.93;76.65;;
45651;Laerm;31365;48.858;8.530;2023-02-13T13:44:31;61.56;45.33;73.35;;
45651;Laerm;31365;48.858;8.530;2023-02-13T13:47:18;61.86;44.35;74.94;;
45651;Laerm;31365;48.858;8.530;2023-02-13T13:49:52;62.11;45.66;74.63;;
45651;Laerm;31365;48.858;8.530;2023-02-13T13:52:25;61.36;42.59;74.08;;
45651;Laerm;31365;48.858;8.530;2023-02-13T13:54:55;63.66;41.75;79.61;;
45651;Laerm;31365;48.858;8.530;2023-02-13T13:57:58;63.45;43.77;81.82;;
45651;Laerm;31365;48.858;8.530;2023-02-13T14:00:30;60.61;42.16;74.01;;
45651;Laerm;31365;48.858;8.530;2023-02-13T14:03:33;58.87;42.16;73.65;;
45651;Laerm;31365;48.858;8.530;2023-02-13T14:06:06;60.78;42.47;73.96;;
45651;Laerm;31365;48.858;8.530;2023-02-13T14:09:36;63.59;43.24;83.10;;
45651;Laerm;31365;48.858;8.530;2023-02-13T14:12:36;61.31;40.43;75.94;;
45651;Laerm;31365;48.858;8.530;2023-02-13T14:15:50;64.64;45.30;78.34;;
45651;Laerm;31365;48.858;8.530;2023-02-13T14:18:23;64.04;46.23;79.28;;
45651;Laerm;31365;48.858;8.530;2023-02-13T14:20:54;57.94;41.68;75.61;;
45651;Laerm;31365;48.858;8.530;2023-02-13T14:23:43;63.06;44.35;76.05;;
45651;Laerm;31365;48.858;8.530;2023-02-13T14:26:29;61.65;43.09;75.57;;
45651;Laerm;31365;48.858;8.530;2023-02-13T14:29:21;60.63;40.89;75.34;;
45651;Laerm;31365;48.858;8.530;2023-02-13T14:32:04;65.49;43.29;80.46;;
45651;Laerm;31365;48.858;8.530;2023-02-13T14:34:37;63.00;43.86;76.10;;
45651;Laerm;31365;48.858;8.530;2023-02-13T14:37:18;62.35;42.29;76.87;;
45651;Laerm;31365;48.858;8.530;2023-02-13T14:42:57;60.99;42.22;77.02;;
45651;Laerm;31365;48.858;8.530;2023-02-13T14:45:32;64.57;42.93;78.02;;
45651;Laerm;31365;48.858;8.530;2023-02-13T14:48:10;66.74;45.36;95.15;;
45651;Laerm;31365;48.858;8.530;2023-02-13T14:50:45;64.90;43.54;83.33;;
45651;Laerm;31365;48.858;8.530;2023-02-13T14:53:20;62.29;43.49;74.96;;
45651;Laerm;31365;48.858;8.530;2023-02-13T14:55:57;64.08;44.27;82.09;;
45651;Laerm;31365;48.858;8.530;2023-02-13T15:01:04;65.51;43.04;79.69;;
45651;Laerm;31365;48.858;8.530;2023-02-13T15:03:43;65.22;42.22;81.89;;
45651;Laerm;31365;48.858;8.530;2023-02-13T15:06:23;67.21;43.49;85.34;;